Time;durP1;ratioP1;P1;durP2;ratioP2;P2;SDS_P1;SDS_P2;PMS_P1;PMS_P2;Temp;Humidity;BMP_temperature;BMP_pressure;BME280_temperature;BME280_humidity;BME280_pressure;Samples;Min_cycle;Max_cycle;Signal;HPM_P1;HPM_P2
2023/05/06 00:02:24;;;;;;;8.80;3.03;;;6.30;1.00;;;;;;10120577;29;20208;-78
2023/05/06 00:07:46;;;;;;;8.57;3.33;;;6.30;1.00;;;;;;10119598;29;20241;-76
2023/05/06 00:13:07;;;;;;;6.93;3.27;;;6.20;1.00;;;;;;10119218;29;20209;-74
2023/05/06 00:18:28;;;;;;;5.83;3.03;;;6.20;99.90;;;;;;10119884;29;20399;-76
2023/05/06 00:23:50;;;;;;;9.17;4.30;;;6.20;1.00;;;;;;10118528;29;20228;-77
2023/05/06 00:29:11;;;;;;;6.67;3.50;;;6.20;1.00;;;;;;10119346;29;20264;-78
2023/05/06 00:34:32;;;;;;;10.17;3.77;;;6.20;99.90;;;;;;10118475;29;20223;-74
2023/05/06 00:39:53;;;;;;;5.83;3.13;;;6.30;1.00;;;;;;10118460;29;20289;-79
2023/05/06 00:45:14;;;;;;;3.70;2.47;;;6.30;1.00;;;;;;10117708;29;20305;-75
2023/05/06 00:50:37;;;;;;;5.53;3.00;;;6.30;99.90;;;;;;10117949;29;20287;-75
2023/05/06 00:55:58;;;;;;;5.17;2.67;;;6.30;57.80;;;;;;10117324;29;20210;-76
2023/05/06 01:01:21;;;;;;;4.97;2.80;;;6.30;1.00;;;;;;10079983;29;20205;-74
2023/05/06 01:07:09;;;;;;;5.93;2.70;;;6.20;90.30;;;;;;10098451;29;20309;-76
2023/05/06 01:12:42;;;;;;;6.17;3.13;;;6.20;86.70;;;;;;10118439;29;20200;-75
2023/05/06 01:18:09;;;;;;;6.03;3.00;;;6.20;86.10;;;;;;10118008;29;20204;-77
2023/05/06 01:23:56;;;;;;;6.23;3.27;;;6.20;78.60;;;;;;10116045;29;20209;-75
2023/05/06 01:29:18;;;;;;;5.27;3.10;;;6.20;78.20;;;;;;10106221;29;20409;-75
2023/05/06 01:34:52;;;;;;;8.60;3.37;;;6.20;74.00;;;;;;10116827;29;20205;-75
2023/05/06 01:40:16;;;;;;;6.77;2.80;;;6.20;70.00;;;;;;10116928;29;20204;-74
2023/05/06 01:45:39;;;;;;;6.87;3.30;;;6.10;59.80;;;;;;10116665;29;20554;-74
2023/05/06 01:51:01;;;;;;;6.60;3.10;;;6.20;54.20;;;;;;10118204;29;20192;-76
2023/05/06 01:56:22;;;;;;;5.07;3.20;;;6.10;53.80;;;;;;10124729;29;20497;-76
2023/05/06 02:01:43;;;;;;;5.80;3.40;;;6.20;55.50;;;;;;10112475;29;20196;-76
2023/05/06 02:07:05;;;;;;;5.60;3.00;;;6.20;52.10;;;;;;10103049;29;20231;-75
2023/05/06 02:12:26;;;;;;;5.80;2.87;;;6.10;48.10;;;;;;10122908;29;20532;-75
2023/05/06 02:17:48;;;;;;;5.23;2.67;;;6.10;1.00;;;;;;10110277;29;20257;-77
2023/05/06 02:23:09;;;;;;;6.40;3.07;;;6.10;1.00;;;;;;10136558;29;20204;-78
2023/05/06 02:28:30;;;;;;;4.97;2.73;;;6.20;1.00;;;;;;10122890;29;20258;-80
2023/05/06 02:33:51;;;;;;;5.90;3.30;;;6.10;1.00;;;;;;10123106;29;20204;-77
2023/05/06 02:39:12;;;;;;;4.03;2.53;;;6.10;1.00;;;;;;10109472;29;20208;-79
2023/05/06 02:44:33;;;;;;;8.53;3.07;;;6.10;1.00;;;;;;10103576;29;20232;-74
2023/05/06 02:49:54;;;;;;;6.10;3.00;;;6.00;1.00;;;;;;10123496;29;20200;-77
2023/05/06 02:55:15;;;;;;;5.00;3.20;;;6.00;1.00;;;;;;10122071;29;20265;-74
2023/05/06 03:00:36;;;;;;;6.87;2.87;;;6.00;1.00;;;;;;10121137;29;20207;-76
2023/05/06 03:05:57;;;;;;;5.17;2.80;;;6.00;1.00;;;;;;10092530;29;20255;-79
2023/05/06 03:11:19;;;;;;;5.47;2.90;;;6.00;1.00;;;;;;10120724;29;20560;-80
2023/05/06 03:16:41;;;;;;;11.80;3.37;;;5.90;1.00;;;;;;10134786;29;20394;-78
2023/05/06 03:22:03;;;;;;;7.73;3.77;;;5.90;1.00;;;;;;10120624;29;20408;-78
2023/05/06 03:27:26;;;;;;;6.87;3.07;;;6.00;1.00;;;;;;10134056;29;20232;-76
2023/05/06 03:32:54;;;;;;;4.60;3.33;;;6.00;1.00;;;;;;10120214;29;20278;-75
2023/05/06 03:38:21;;;;;;;8.57;4.60;;;5.90;1.00;;;;;;10120667;29;20487;-76
2023/05/06 03:43:49;;;;;;;5.83;2.77;;;6.00;1.00;;;;;;10119974;29;20203;-79
2023/05/06 03:49:14;;;;;;;5.63;3.10;;;6.00;1.00;;;;;;10120517;29;20200;-78
2023/05/06 03:54:37;;;;;;;6.20;3.50;;;6.00;1.00;;;;;;10117626;29;20218;-75
2023/05/06 04:00:00;;;;;;;4.77;3.10;;;5.90;1.00;;;;;;10119867;29;20200;-75
2023/05/06 04:05:24;;;;;;;12.03;3.93;;;5.90;1.00;;;;;;10118389;29;20246;-79
2023/05/06 04:10:46;;;;;;;7.13;3.37;;;6.00;1.00;;;;;;10119451;29;20233;-78
2023/05/06 04:16:18;;;;;;;4.07;2.70;;;6.10;1.00;;;;;;10104981;29;20408;-75
2023/05/06 04:21:39;;;;;;;6.93;4.13;;;6.00;1.00;;;;;;10117874;29;20205;-77
2023/05/06 04:27:04;;;;;;;5.87;3.50;;;6.00;1.00;;;;;;10118579;29;20453;-79
2023/05/06 04:32:25;;;;;;;6.73;4.33;;;6.10;1.00;;;;;;10117737;29;20244;-80
2023/05/06 04:37:47;;;;;;;7.97;4.07;;;6.10;1.00;;;;;;10119069;29;20282;-80
2023/05/06 04:43:15;;;;;;;12.93;4.27;;;6.10;1.00;;;;;;10130553;29;20213;-76
2023/05/06 04:48:37;;;;;;;7.33;3.67;;;6.10;1.00;;;;;;10131129;29;20255;-76
2023/05/06 04:54:01;;;;;;;8.80;2.90;;;6.20;1.00;;;;;;10130023;29;20498;-80
2023/05/06 04:59:22;;;;;;;8.53;3.37;;;6.00;1.00;;;;;;10117670;29;20210;-80
2023/05/06 05:04:44;;;;;;;8.10;3.30;;;6.10;1.00;;;;;;10116881;29;20227;-80
2023/05/06 05:10:07;;;;;;;5.97;3.20;;;6.20;1.00;;;;;;10116960;29;21536;-79
2023/05/06 05:15:28;;;;;;;5.80;3.33;;;6.20;1.00;;;;;;10092046;29;20203;-79
2023/05/06 05:20:49;;;;;;;4.87;3.20;;;6.30;1.00;;;;;;10102042;29;20218;-79
2023/05/06 05:26:12;;;;;;;4.70;3.30;;;6.40;1.00;;;;;;10116578;29;20524;-76
2023/05/06 05:31:34;;;;;;;6.67;2.90;;;6.50;1.00;;;;;;10116100;29;20253;-75
2023/05/06 05:36:58;;;;;;;5.93;2.90;;;6.70;1.00;;;;;;10116731;29;20203;-78
2023/05/06 05:42:19;;;;;;;8.63;3.23;;;6.60;1.00;;;;;;10122635;29;20211;-76
2023/05/06 05:47:41;;;;;;;8.23;3.30;;;6.90;1.00;;;;;;10132954;29;20240;-77
2023/05/06 05:53:04;;;;;;;6.03;3.00;;;7.00;1.00;;;;;;10115330;29;20205;-75
2023/05/06 05:58:27;;;;;;;3.73;2.90;;;7.10;1.00;;;;;;10129786;29;20220;-75
2023/05/06 06:03:52;;;;;;;4.87;2.80;;;7.10;1.00;;;;;;10115539;29;20206;-76
2023/05/06 06:09:16;;;;;;;10.17;3.17;;;7.50;1.00;;;;;;10116016;29;20494;-76
2023/05/06 06:14:37;;;;;;;7.23;2.50;;;7.60;1.00;;;;;;10101749;29;20238;-77
2023/05/06 06:19:58;;;;;;;4.60;2.63;;;7.70;1.00;;;;;;10115588;29;20565;-78
2023/05/06 06:25:20;;;;;;;7.50;4.30;;;7.70;1.00;;;;;;10090436;29;20571;-77
2023/05/06 06:30:41;;;;;;;7.43;4.03;;;8.00;1.00;;;;;;10114706;29;20247;-75
2023/05/06 06:36:02;;;;;;;8.57;3.23;;;8.10;1.00;;;;;;10077768;29;20277;-75
2023/05/06 06:41:23;;;;;;;31.20;21.60;;;8.10;1.00;;;;;;10077087;29;20213;-78
2023/05/06 06:46:44;;;;;;;9.03;6.23;;;8.20;1.00;;;;;;10122948;29;20225;-79
2023/05/06 06:52:05;;;;;;;6.43;3.30;;;8.50;1.00;;;;;;10122201;29;20263;-76
2023/05/06 06:57:26;;;;;;;4.77;2.30;;;8.60;99.90;;;;;;10122690;29;20199;-79
2023/05/06 07:02:48;;;;;;;6.93;2.70;;;8.70;99.90;;;;;;10121479;29;20205;-76
2023/05/06 07:08:09;;;;;;;5.67;3.17;;;8.80;99.90;;;;;;10122246;29;20228;-77
2023/05/06 07:13:30;;;;;;;14.47;3.20;;;9.00;99.90;;;;;;10120411;29;20207;-77
2023/05/06 07:18:52;;;;;;;5.00;2.67;;;9.10;99.90;;;;;;10121958;29;20342;-79
2023/05/06 07:24:13;;;;;;;5.33;2.30;;;9.10;99.90;;;;;;10120913;29;20204;-79
2023/05/06 07:29:35;;;;;;;13.13;2.30;;;9.30;99.90;;;;;;10120610;29;20264;-75
2023/05/06 07:34:56;;;;;;;7.17;2.50;;;9.40;99.90;;;;;;10106092;29;20262;-78
2023/05/06 07:40:18;;;;;;;7.33;2.43;;;9.60;99.90;;;;;;10133306;29;20434;-76
2023/05/06 07:45:40;;;;;;;7.13;2.60;;;9.70;99.90;;;;;;10096253;29;20247;-74
2023/05/06 07:51:01;;;;;;;5.93;3.63;;;9.80;99.90;;;;;;10097659;29;20203;-74
2023/05/06 07:56:22;;;;;;;9.43;4.27;;;9.70;99.90;;;;;;10082307;29;20246;-75
2023/05/06 08:01:43;;;;;;;6.30;2.83;;;9.80;99.90;;;;;;10104227;29;20206;-75
2023/05/06 08:07:04;;;;;;;9.00;2.50;;;9.80;99.90;;;;;;10120263;29;20224;-79
2023/05/06 08:12:25;;;;;;;7.57;2.90;;;9.90;99.90;;;;;;10119337;29;20208;-77
2023/05/06 08:17:46;;;;;;;12.87;3.33;;;9.90;99.90;;;;;;10119777;29;20468;-75
2023/05/06 08:23:07;;;;;;;3.90;2.30;;;10.00;99.90;;;;;;10117623;29;20256;-76
2023/05/06 08:28:28;;;;;;;6.57;3.00;;;10.20;99.90;;;;;;10079479;29;20276;-79
2023/05/06 08:33:50;;;;;;;5.90;3.07;;;10.20;99.90;;;;;;10103792;29;20473;-76
2023/05/06 08:39:13;;;;;;;5.67;2.80;;;10.30;99.90;;;;;;10119516;29;20224;-78
2023/05/06 08:44:35;;;;;;;15.47;2.43;;;10.40;99.90;;;;;;10118051;29;20230;-75
2023/05/06 08:49:56;;;;;;;5.87;2.87;;;10.30;99.90;;;;;;10118792;29;20203;-75
2023/05/06 08:55:18;;;;;;;9.50;3.13;;;10.20;99.90;;;;;;10116872;29;20247;-76
2023/05/06 09:00:40;;;;;;;3.97;2.43;;;10.40;99.90;;;;;;10118197;29;20197;-75
2023/05/06 09:06:01;;;;;;;7.70;2.50;;;10.50;99.90;;;;;;10117129;29;20228;-77
2023/05/06 09:11:23;;;;;;;3.87;2.27;;;10.50;99.90;;;;;;10115945;29;20193;-79
2023/05/06 09:16:48;;;;;;;6.50;3.17;;;10.60;99.90;;;;;;10130280;29;20244;-80
2023/05/06 09:22:10;;;;;;;7.93;3.77;;;10.50;99.90;;;;;;10116837;29;20511;-76
2023/05/06 09:27:33;;;;;;;7.77;3.57;;;10.60;99.90;;;;;;10103366;29;20240;-78
2023/05/06 09:32:54;;;;;;;8.80;3.60;;;10.70;99.90;;;;;;10116224;29;20562;-75
2023/05/06 09:38:15;;;;;;;10.60;3.80;;;10.60;99.90;;;;;;10117408;29;20205;-79
2023/05/06 09:43:40;;;;;;;8.83;3.73;;;10.60;99.90;;;;;;10129019;29;20290;-80
2023/05/06 09:49:01;;;;;;;7.20;2.53;;;10.70;99.90;;;;;;10116674;29;20562;-79
2023/05/06 09:54:24;;;;;;;6.73;3.50;;;10.60;99.90;;;;;;10116560;29;20221;-77
2023/05/06 09:59:46;;;;;;;6.63;3.33;;;10.70;99.90;;;;;;10117159;29;20410;-80
2023/05/06 10:05:09;;;;;;;14.63;5.00;;;10.80;99.90;;;;;;10116428;29;20549;-79
2023/05/06 10:10:32;;;;;;;12.70;4.50;;;10.90;99.90;;;;;;10116246;29;20492;-76
2023/05/06 10:15:54;;;;;;;6.93;3.23;;;11.00;99.90;;;;;;10120227;29;20204;-81
2023/05/06 10:21:23;;;;;;;9.73;3.03;;;11.00;99.90;;;;;;10124576;29;20209;-77
2023/05/06 10:26:45;;;;;;;10.40;4.40;;;11.00;99.90;;;;;;10122097;29;20233;-77
2023/05/06 10:32:08;;;;;;;5.90;2.70;;;11.10;99.90;;;;;;10122255;29;20230;-78
2023/05/06 10:37:31;;;;;;;15.03;4.37;;;11.00;99.90;;;;;;10123817;29;20207;-75
2023/05/06 10:43:12;;;;;;;9.10;4.43;;;11.20;99.90;;;;;;10122632;29;20499;-79
2023/05/06 10:48:38;;;;;;;8.52;3.05;;;11.20;99.90;;;;;;10123562;29;20226;-76
2023/05/06 10:54:07;;;;;;;7.13;3.22;;;11.20;99.90;;;;;;10121982;29;20480;-76
2023/05/06 10:59:28;;;;;;;5.30;2.23;;;11.40;99.90;;;;;;10122853;29;20273;-76
2023/05/06 11:05:00;;;;;;;9.48;4.18;;;11.30;99.90;;;;;;10122065;29;20205;-78
2023/05/06 11:10:32;;;;;;;7.43;3.20;;;11.30;99.90;;;;;;10122415;29;20461;-76
2023/05/06 11:15:55;;;;;;;12.07;3.30;;;11.30;99.90;;;;;;10121578;29;20289;-79
2023/05/06 11:21:19;;;;;;;5.73;3.10;;;11.20;99.90;;;;;;10122121;29;20584;-76
2023/05/06 11:26:40;;;;;;;8.32;3.33;;;11.20;99.90;;;;;;10117462;29;20236;-78
2023/05/06 11:32:02;;;;;;;9.40;3.23;;;11.00;99.90;;;;;;10121047;29;20236;-77
2023/05/06 11:37:27;;;;;;;11.27;2.80;;;10.90;99.90;;;;;;10083110;29;20285;-76
2023/05/06 11:42:48;;;;;;;5.87;3.00;;;10.90;99.90;;;;;;10091651;29;20212;-78
2023/05/06 11:48:16;;;;;;;6.90;3.40;;;11.10;99.90;;;;;;10121229;29;20248;-78
2023/05/06 11:53:37;;;;;;;6.23;3.70;;;11.10;99.90;;;;;;10119175;29;20220;-77
2023/05/06 11:58:58;;;;;;;10.70;3.87;;;11.00;99.90;;;;;;10120692;29;20390;-79
2023/05/06 12:04:19;;;;;;;11.30;3.30;;;11.10;99.90;;;;;;10119938;29;20212;-78
2023/05/06 12:09:43;;;;;;;11.20;4.23;;;11.20;99.90;;;;;;10120138;29;20220;-75
2023/05/06 12:15:05;;;;;;;12.60;3.22;;;11.30;99.90;;;;;;10119436;29;20217;-78
2023/05/06 12:20:26;;;;;;;8.18;3.30;;;11.40;99.90;;;;;;10119788;29;20268;-80
2023/05/06 12:26:01;;;;;;;15.82;4.80;;;11.50;99.90;;;;;;10119085;29;20246;-80
2023/05/06 12:31:24;;;;;;;7.30;3.85;;;11.60;99.90;;;;;;10119972;29;20277;-79
2023/05/06 12:36:46;;;;;;;5.77;2.87;;;11.60;99.90;;;;;;10117890;29;20217;-76
2023/05/06 12:42:07;;;;;;;6.88;4.40;;;11.50;99.90;;;;;;10124141;29;20500;-76
2023/05/06 12:47:29;;;;;;;5.20;2.75;;;11.50;99.90;;;;;;10106249;29;20242;-79
2023/05/06 12:52:50;;;;;;;9.50;4.53;;;11.40;99.90;;;;;;10087218;29;20209;-79
2023/05/06 12:58:15;;;;;;;9.75;4.70;;;11.50;99.90;;;;;;10118997;29;20194;-78
2023/05/06 13:03:39;;;;;;;16.35;7.13;;;11.60;99.90;;;;;;10117832;29;20209;-79
2023/05/06 13:09:00;;;;;;;13.05;5.43;;;11.70;99.90;;;;;;10118563;29;20222;-74
2023/05/06 13:14:22;;;;;;;10.55;3.88;;;11.70;99.90;;;;;;10116490;29;20215;-74
2023/05/06 13:19:43;;;;;;;12.13;6.60;;;11.70;99.90;;;;;;10117890;29;20220;-74
2023/05/06 13:25:04;;;;;;;5.13;3.58;;;11.70;99.90;;;;;;10117100;29;20202;-75
2023/05/06 13:30:26;;;;;;;9.30;4.13;;;11.80;99.90;;;;;;10117923;29;20336;-78
2023/05/06 13:35:47;;;;;;;9.25;3.53;;;11.70;99.90;;;;;;10115814;29;20280;-79
2023/05/06 13:41:08;;;;;;;4.75;2.78;;;11.80;99.90;;;;;;10103390;29;20227;-75
2023/05/06 13:46:30;;;;;;;8.00;4.03;;;11.80;99.90;;;;;;10116383;29;20400;-75
2023/05/06 13:51:52;;;;;;;8.85;4.95;;;11.90;99.90;;;;;;10124366;29;20209;-75
2023/05/06 13:57:13;;;;;;;9.73;4.90;;;11.90;99.90;;;;;;10123016;29;20499;-75
2023/05/06 14:02:35;;;;;;;8.70;3.95;;;12.00;99.90;;;;;;10124752;29;20435;-75
2023/05/06 14:07:56;;;;;;;7.93;3.57;;;12.00;99.90;;;;;;10122906;29;20238;-77
2023/05/06 14:13:17;;;;;;;5.72;3.17;;;12.20;99.90;;;;;;10123384;29;20198;-75
2023/05/06 14:18:38;;;;;;;4.68;3.30;;;12.20;99.90;;;;;;10123062;29;20213;-75
2023/05/06 14:23:59;;;;;;;5.68;3.10;;;12.30;99.90;;;;;;10125200;29;20505;-75
2023/05/06 14:29:20;;;;;;;5.38;3.58;;;12.30;99.90;;;;;;10122845;29;20269;-75
2023/05/06 14:34:41;;;;;;;10.15;5.22;;;12.30;99.90;;;;;;10123801;29;20213;-75
2023/05/06 14:40:03;;;;;;;8.23;3.83;;;12.30;99.90;;;;;;10122915;29;20411;-74
2023/05/06 14:45:24;;;;;;;15.05;6.93;;;12.20;99.90;;;;;;10123408;29;20215;-75
2023/05/06 14:50:45;;;;;;;28.15;13.27;;;12.40;99.90;;;;;;10120672;29;20593;-75
2023/05/06 14:56:09;;;;;;;28.98;15.13;;;12.50;99.90;;;;;;10122313;29;20227;-74
2023/05/06 15:01:32;;;;;;;9.00;4.45;;;12.50;99.90;;;;;;10104935;29;20205;-75
2023/05/06 15:06:55;;;;;;;7.82;4.60;;;12.50;99.90;;;;;;10104900;29;20273;-75
2023/05/06 15:12:16;;;;;;;8.75;3.97;;;12.50;99.90;;;;;;10083893;29;20263;-76
2023/05/06 15:17:40;;;;;;;4.45;2.78;;;12.60;99.90;;;;;;10120749;29;20242;-75
2023/05/06 15:23:01;;;;;;;6.88;3.25;;;12.60;99.90;;;;;;10104273;29;20492;-75
2023/05/06 15:28:22;;;;;;;5.80;3.40;;;12.60;99.90;;;;;;10122098;29;20416;-75
2023/05/06 15:33:44;;;;;;;6.43;2.92;;;12.80;99.90;;;;;;10119895;29;20211;-75
2023/05/06 15:39:05;;;;;;;4.70;3.40;;;12.70;99.90;;;;;;10122046;29;20199;-77
2023/05/06 15:44:26;;;;;;;6.72;4.45;;;12.60;99.90;;;;;;10121254;29;20286;-75
2023/05/06 15:49:47;;;;;;;16.25;5.70;;;12.60;99.90;;;;;;10119575;29;20230;-75
2023/05/06 15:55:12;;;;;;;18.83;6.80;;;12.60;99.90;;;;;;10130200;29;20210;-75
2023/05/06 16:00:33;;;;;;;7.40;4.03;;;12.50;99.90;;;;;;10119764;29;20210;-74
2023/05/06 16:05:56;;;;;;;6.85;3.90;;;12.40;99.90;;;;;;10119461;29;20204;-75
2023/05/06 16:11:17;;;;;;;13.88;5.25;;;12.30;99.90;;;;;;10118412;29;20255;-75
2023/05/06 16:16:38;;;;;;;7.88;5.15;;;12.40;99.90;;;;;;10119520;29;20246;-75
2023/05/06 16:22:00;;;;;;;7.93;3.65;;;12.40;99.90;;;;;;10119186;29;20237;-76
2023/05/06 16:27:22;;;;;;;7.93;4.13;;;12.40;99.90;;;;;;10119661;29;20431;-76
2023/05/06 16:32:43;;;;;;;5.32;3.00;;;12.30;99.90;;;;;;10117675;29;20285;-74
2023/05/06 16:38:04;;;;;;;4.35;2.80;;;12.30;99.90;;;;;;10119549;29;20255;-75
2023/05/06 16:43:25;;;;;;;7.53;3.70;;;12.30;99.90;;;;;;10118362;29;20206;-74
2023/05/06 16:48:46;;;;;;;5.72;3.22;;;12.20;99.90;;;;;;10119034;29;20242;-74
2023/05/06 16:54:07;;;;;;;6.38;4.22;;;12.00;99.90;;;;;;10118237;29;20294;-74
2023/05/06 16:59:28;;;;;;;9.75;5.70;;;11.90;99.90;;;;;;10117322;29;20229;-74
2023/05/06 17:04:50;;;;;;;6.70;4.60;;;11.80;99.90;;;;;;10118288;29;20539;-76
2023/05/06 17:10:12;;;;;;;8.65;4.70;;;11.80;99.90;;;;;;10117296;29;20257;-75
2023/05/06 17:15:33;;;;;;;8.07;3.90;;;11.60;99.90;;;;;;10118644;29;20341;-76
2023/05/06 17:20:55;;;;;;;9.80;4.50;;;11.40;99.90;;;;;;10116535;29;20567;-76
2023/05/06 17:26:17;;;;;;;8.10;4.60;;;11.30;99.90;;;;;;10129580;29;20220;-77
2023/05/06 17:31:38;;;;;;;8.50;4.30;;;11.10;99.90;;;;;;10116345;29;20240;-76
2023/05/06 17:36:59;;;;;;;126.07;56.03;;;11.00;99.90;;;;;;10117873;29;20245;-77
2023/05/06 17:42:20;;;;;;;28.30;15.10;;;10.80;99.90;;;;;;10116774;29;20216;-76
2023/05/06 17:47:41;;;;;;;15.70;10.57;;;10.70;99.90;;;;;;10117662;29;20233;-80
2023/05/06 17:53:02;;;;;;;15.37;6.10;;;10.50;99.90;;;;;;10115963;29;20209;-76
2023/05/06 17:58:23;;;;;;;16.10;6.93;;;10.30;99.90;;;;;;10116049;29;20425;-75
2023/05/06 18:03:44;;;;;;;12.20;6.13;;;10.20;99.90;;;;;;10116720;29;20208;-77
2023/05/06 18:09:06;;;;;;;9.97;6.30;;;10.10;99.90;;;;;;10116401;29;20258;-80
2023/05/06 18:14:27;;;;;;;12.23;5.33;;;9.90;99.90;;;;;;10116436;29;20211;-76
2023/05/06 18:19:48;;;;;;;8.20;4.97;;;9.80;99.90;;;;;;10116908;29;20215;-74
2023/05/06 18:25:10;;;;;;;7.17;3.73;;;9.70;99.90;;;;;;10115853;29;20211;-79
2023/05/06 18:30:31;;;;;;;7.87;3.73;;;9.60;1.00;;;;;;10114566;29;20239;-75
2023/05/06 18:35:52;;;;;;;8.93;3.73;;;9.50;1.00;;;;;;10108354;29;20230;-74
2023/05/06 18:41:13;;;;;;;5.47;3.30;;;9.30;1.00;;;;;;10125051;29;20234;-73
2023/05/06 18:46:34;;;;;;;6.47;4.00;;;9.20;1.00;;;;;;10125592;29;20241;-75
2023/05/06 18:51:56;;;;;;;10.87;4.90;;;9.10;1.00;;;;;;10121903;29;20504;-76
2023/05/06 18:57:18;;;;;;;7.17;3.77;;;9.00;1.00;;;;;;10126880;29;20302;-76
2023/05/06 19:02:39;;;;;;;9.40;4.07;;;9.00;1.00;;;;;;10124862;29;20217;-76
2023/05/06 19:08:00;;;;;;;9.90;3.80;;;8.90;1.00;;;;;;10122694;29;20230;-75
2023/05/06 19:13:21;;;;;;;9.17;5.00;;;8.80;1.00;;;;;;10122040;29;20215;-76
2023/05/06 19:18:43;;;;;;;7.93;4.77;;;8.90;1.00;;;;;;10130344;29;20443;-74
2023/05/06 19:24:07;;;;;;;7.47;4.80;;;8.70;1.00;;;;;;10132184;29;20255;-74
2023/05/06 19:29:28;;;;;;;7.60;4.53;;;8.60;15.40;;;;;;10121888;29;20244;-74
2023/05/06 19:34:49;;;;;;;5.83;3.80;;;8.60;93.00;;;;;;10121027;29;20237;-74
2023/05/06 19:40:10;;;;;;;8.10;4.07;;;8.50;99.90;;;;;;10123909;29;20201;-75
2023/05/06 19:45:32;;;;;;;5.60;3.20;;;8.40;99.90;;;;;;10120677;29;20394;-74
2023/05/06 19:50:53;;;;;;;8.03;4.40;;;8.30;99.90;;;;;;10120413;29;20237;-74
2023/05/06 19:56:15;;;;;;;12.30;4.50;;;8.20;1.00;;;;;;10082612;29;20195;-74
2023/05/06 20:01:36;;;;;;;9.97;4.53;;;8.10;1.00;;;;;;10103794;29;20257;-75
2023/05/06 20:06:57;;;;;;;6.40;3.83;;;7.90;1.00;;;;;;10120291;29;20214;-74
2023/05/06 20:12:18;;;;;;;11.07;6.13;;;7.90;1.00;;;;;;10118843;29;20209;-75
2023/05/06 20:17:40;;;;;;;17.63;7.50;;;8.00;1.00;;;;;;10117003;29;20204;-74
2023/05/06 20:23:03;;;;;;;13.40;6.17;;;7.90;5.80;;;;;;10119784;29;20252;-74
2023/05/06 20:28:25;;;;;;;11.03;5.80;;;7.80;99.90;;;;;;10114715;29;20538;-75
2023/05/06 20:33:46;;;;;;;13.67;7.50;;;7.80;99.90;;;;;;10119516;29;20220;-74
2023/05/06 20:39:09;;;;;;;13.60;8.00;;;7.70;99.90;;;;;;10118441;29;20213;-74
2023/05/06 20:44:30;;;;;;;15.37;7.97;;;7.60;99.90;;;;;;10118572;29;20208;-75
2023/05/06 20:49:51;;;;;;;19.07;7.83;;;7.70;1.00;;;;;;10112525;29;20234;-76
2023/05/06 20:55:13;;;;;;;12.43;6.97;;;7.60;1.00;;;;;;10118101;29;20210;-80
2023/05/06 21:00:34;;;;;;;15.07;7.77;;;7.50;1.00;;;;;;10118034;29;20504;-77
2023/05/06 21:05:55;;;;;;;13.17;6.70;;;7.50;1.00;;;;;;10117607;29;20249;-75
2023/05/06 21:11:16;;;;;;;14.70;7.03;;;7.50;1.00;;;;;;10118515;29;20244;-79
2023/05/06 21:16:39;;;;;;;13.83;6.90;;;7.50;1.00;;;;;;10117194;29;20203;-75
2023/05/06 21:22:00;;;;;;;12.13;6.10;;;7.50;1.00;;;;;;10116957;29;20285;-79
2023/05/06 21:27:21;;;;;;;14.60;5.47;;;7.40;33.10;;;;;;10116188;29;20256;-75
2023/05/06 21:32:43;;;;;;;11.47;5.10;;;7.40;1.00;;;;;;10117554;29;20233;-75
2023/05/06 21:38:04;;;;;;;6.83;4.37;;;7.50;1.00;;;;;;10116892;29;20220;-77
2023/05/06 21:43:25;;;;;;;8.33;5.13;;;7.50;1.00;;;;;;10116904;29;20208;-79
2023/05/06 21:48:46;;;;;;;7.00;4.87;;;7.50;1.00;;;;;;10116524;29;20236;-78
2023/05/06 21:54:07;;;;;;;9.93;5.07;;;7.50;65.70;;;;;;10117757;29;20220;-77
2023/05/06 21:59:28;;;;;;;7.73;5.07;;;7.40;1.00;;;;;;10116653;29;20235;-78
2023/05/06 22:04:50;;;;;;;9.73;5.37;;;7.40;1.00;;;;;;10116709;29;20467;-79
2023/05/06 22:10:11;;;;;;;12.13;5.87;;;7.40;1.00;;;;;;10119529;29;20270;-76
2023/05/06 22:15:32;;;;;;;11.60;6.40;;;7.40;1.00;;;;;;10123766;29;20204;-75
2023/05/06 22:20:55;;;;;;;11.43;6.90;;;7.30;1.00;;;;;;10124640;29;20210;-74
2023/05/06 22:26:16;;;;;;;10.70;6.57;;;7.30;1.00;;;;;;10123724;29;20208;-76
2023/05/06 22:31:37;;;;;;;15.20;7.57;;;7.20;1.00;;;;;;10136270;29;20242;-75
2023/05/06 22:36:58;;;;;;;17.00;9.00;;;7.20;1.00;;;;;;10123318;29;20303;-75
2023/05/06 22:42:20;;;;;;;10.90;7.77;;;7.10;1.00;;;;;;10123042;29;20199;-75
2023/05/06 22:47:41;;;;;;;15.43;8.00;;;7.10;1.00;;;;;;10122511;29;20253;-75
2023/05/06 22:53:02;;;;;;;14.63;7.90;;;7.10;1.00;;;;;;10123538;29;20216;-75
2023/05/06 22:58:27;;;;;;;14.57;7.70;;;7.00;1.00;;;;;;10122418;29;20211;-74
2023/05/06 23:03:48;;;;;;;20.03;10.10;;;6.90;1.00;;;;;;10123249;29;20198;-74
2023/05/06 23:09:09;;;;;;;23.13;11.70;;;6.70;99.90;;;;;;10122265;29;20236;-74
2023/05/06 23:14:30;;;;;;;35.83;11.17;;;6.70;1.00;;;;;;10122642;29;20402;-75
2023/05/06 23:19:51;;;;;;;24.00;9.40;;;6.70;1.00;;;;;;10121065;29;20295;-74
2023/05/06 23:25:12;;;;;;;23.60;9.73;;;6.70;1.00;;;;;;10121670;29;20760;-80
2023/05/06 23:30:33;;;;;;;20.23;10.30;;;6.60;1.00;;;;;;10083354;29;20255;-76
2023/05/06 23:35:54;;;;;;;17.77;8.93;;;6.50;1.00;;;;;;10089326;29;20207;-76
2023/05/06 23:41:15;;;;;;;20.90;10.17;;;6.50;1.00;;;;;;10120844;29;20281;-75
2023/05/06 23:46:36;;;;;;;23.43;9.43;;;6.50;1.00;;;;;;10120730;29;20213;-76
2023/05/06 23:51:57;;;;;;;15.97;8.47;;;6.40;1.00;;;;;;10120365;29;20530;-76
2023/05/06 23:57:18;;;;;;;16.23;8.60;;;6.40;1.00;;;;;;10120488;29;20457;-74
